createdAt,value
2023-05-10T00:02:00.093Z,100.00
2023-05-10T00:04:29.690Z,100.00
2023-05-10T00:06:58.475Z,100.00
2023-05-10T00:09:28.699Z,100.00
2023-05-10T00:11:59.486Z,100.00
2023-05-10T00:14:28.381Z,100.00
2023-05-10T00:16:57.207Z,100.00
2023-05-10T00:19:26.048Z,100.00
2023-05-10T00:21:54.983Z,100.00
2023-05-10T00:24:23.846Z,100.00
2023-05-10T00:26:54.143Z,100.00
2023-05-10T00:29:23.054Z,100.00
2023-05-10T00:31:51.975Z,100.00
2023-05-10T00:34:20.891Z,100.00
2023-05-10T00:36:49.719Z,100.00
2023-05-10T00:39:18.575Z,100.00
2023-05-10T00:41:47.415Z,100.00
2023-05-10T00:44:18.062Z,100.00
2023-05-10T00:46:47.340Z,100.00
2023-05-10T00:49:16.340Z,100.00
2023-05-10T00:51:45.684Z,100.00
2023-05-10T00:54:17.095Z,100.00
2023-05-10T00:56:49.816Z,100.00
2023-05-10T00:59:20.620Z,100.00
2023-05-10T01:01:49.844Z,100.00
2023-05-10T01:04:18.739Z,100.00
2023-05-10T01:06:47.674Z,100.00
2023-05-10T01:09:16.564Z,100.00
2023-05-10T01:11:47.157Z,100.00
2023-05-10T01:14:17.145Z,100.00
2023-05-10T01:16:49.295Z,100.00
2023-05-10T01:19:23.127Z,100.00
2023-05-10T01:22:03.324Z,100.00
2023-05-10T01:25:16.367Z,100.00
2023-05-10T01:28:06.036Z,100.00
2023-05-10T01:31:04.196Z,100.00
2023-05-10T01:33:41.317Z,100.00
2023-05-10T01:36:18.403Z,100.00
2023-05-10T01:38:52.550Z,100.00
2023-05-10T01:41:29.960Z,100.00
2023-05-10T01:44:05.590Z,100.00
2023-05-10T01:46:37.966Z,100.00
2023-05-10T01:49:11.590Z,100.00
2023-05-10T01:51:47.233Z,100.00
2023-05-10T01:54:19.668Z,100.00
2023-05-10T01:56:52.782Z,100.00
2023-05-10T01:59:23.626Z,100.00
2023-05-10T02:01:54.694Z,100.00
2023-05-10T02:04:27.224Z,100.00
2023-05-10T02:06:57.640Z,100.00
2023-05-10T02:09:29.805Z,100.00
2023-05-10T02:12:02.019Z,100.00
2023-05-10T02:14:32.679Z,100.00
2023-05-10T02:17:03.699Z,100.00
2023-05-10T02:19:35.944Z,100.00
2023-05-10T02:22:06.018Z,100.00
2023-05-10T02:24:37.099Z,100.00
2023-05-10T02:27:06.687Z,100.00
2023-05-10T02:29:36.513Z,100.00
2023-05-10T02:32:06.636Z,100.00
2023-05-10T02:34:37.255Z,100.00
2023-05-10T02:37:07.698Z,100.00
2023-05-10T02:39:37.389Z,100.00
2023-05-10T02:42:07.577Z,100.00
2023-05-10T02:44:38.960Z,100.00
2023-05-10T02:47:07.877Z,100.00
2023-05-10T02:49:38.126Z,100.00
2023-05-10T02:52:10.192Z,100.00
2023-05-10T02:54:45.932Z,100.00
2023-05-10T02:57:20.376Z,100.00
2023-05-10T02:59:49.444Z,100.00
2023-05-10T03:02:18.712Z,100.00
2023-05-10T03:04:49.136Z,100.00
2023-05-10T03:07:20.354Z,100.00
2023-05-10T03:09:52.116Z,100.00
2023-05-10T03:12:29.199Z,100.00
2023-05-10T03:15:05.397Z,100.00
2023-05-10T03:17:54.801Z,100.00
2023-05-10T03:20:28.447Z,100.00
2023-05-10T03:23:03.359Z,100.00
2023-05-10T03:25:33.936Z,100.00
2023-05-10T03:28:06.637Z,100.00
2023-05-10T03:30:37.700Z,100.00
2023-05-10T03:33:08.161Z,100.00
2023-05-10T03:35:42.601Z,100.00
2023-05-10T03:38:11.444Z,100.00
2023-05-10T03:40:40.920Z,100.00
2023-05-10T03:43:10.514Z,100.00
2023-05-10T03:45:39.415Z,100.00
2023-05-10T03:48:08.618Z,100.00
2023-05-10T03:50:37.517Z,100.00
2023-05-10T03:53:07.905Z,100.00
2023-05-10T03:55:37.502Z,100.00
2023-05-10T03:58:06.520Z,100.00
2023-05-10T04:00:36.747Z,100.00
2023-05-10T04:03:05.845Z,100.00
2023-05-10T04:05:34.638Z,100.00
2023-05-10T04:08:03.686Z,100.00
2023-05-10T04:10:34.739Z,100.00
2023-05-10T04:13:03.589Z,100.00
2023-05-10T04:15:32.359Z,100.00
2023-05-10T04:18:01.360Z,100.00
2023-05-10T04:20:30.273Z,100.00
2023-05-10T04:22:59.430Z,100.00
2023-05-10T04:25:28.235Z,100.00
2023-05-10T04:27:58.570Z,100.00
2023-05-10T04:30:29.515Z,100.00
2023-05-10T04:32:58.438Z,100.00
2023-05-10T04:35:27.366Z,100.00
2023-05-10T04:37:56.411Z,100.00
2023-05-10T04:40:25.331Z,100.00
2023-05-10T04:42:54.114Z,100.00
2023-05-10T04:45:24.480Z,100.00
2023-05-10T04:47:53.300Z,100.00
2023-05-10T04:50:22.247Z,100.00
2023-05-10T04:52:52.276Z,100.00
2023-05-10T04:55:22.125Z,100.00
2023-05-10T04:57:51.019Z,100.00
2023-05-10T05:00:20.573Z,100.00
2023-05-10T05:02:51.262Z,100.00
2023-05-10T05:05:20.375Z,100.00
2023-05-10T05:07:49.192Z,100.00
2023-05-10T05:10:18.524Z,100.00
2023-05-10T05:12:47.606Z,100.00
2023-05-10T05:15:17.685Z,100.00
2023-05-10T05:17:46.647Z,100.00
2023-05-10T05:20:17.262Z,100.00
2023-05-10T05:22:46.504Z,100.00
2023-05-10T05:25:16.226Z,100.00
2023-05-10T05:27:45.041Z,100.00
2023-05-10T05:30:14.271Z,100.00
2023-05-10T05:32:43.243Z,100.00
2023-05-10T05:35:12.100Z,100.00
2023-05-10T05:37:42.418Z,100.00
2023-05-10T05:40:14.831Z,100.00
2023-05-10T05:42:43.810Z,100.00
2023-05-10T05:45:14.958Z,98.82
2023-05-10T05:47:44.003Z,97.08
2023-05-10T05:50:13.046Z,100.00
2023-05-10T05:52:43.298Z,93.55
2023-05-10T05:55:12.154Z,95.35
2023-05-10T05:57:41.045Z,100.00
2023-05-10T06:00:10.774Z,94.29
2023-05-10T06:02:42.308Z,96.19
2023-05-10T06:05:11.433Z,100.00
2023-05-10T06:07:41.841Z,92.72
2023-05-10T06:10:12.378Z,93.63
2023-05-10T06:12:41.223Z,95.68
2023-05-10T06:15:11.571Z,94.53
2023-05-10T06:17:41.283Z,90.60
2023-05-10T06:20:11.268Z,85.33
2023-05-10T06:22:40.130Z,86.55
2023-05-10T06:25:12.522Z,87.32
2023-05-10T06:27:41.351Z,83.91
2023-05-10T06:30:13.491Z,86.08
2023-05-10T06:32:46.249Z,89.57
2023-05-10T06:35:15.409Z,79.80
2023-05-10T06:37:44.441Z,76.58
2023-05-10T06:40:15.497Z,82.00
2023-05-10T06:42:46.005Z,81.48
2023-05-10T06:45:16.151Z,79.32
2023-05-10T06:47:46.928Z,81.55
2023-05-10T06:50:16.260Z,82.55
2023-05-10T06:52:45.109Z,79.25
2023-05-10T06:55:15.433Z,80.40
2023-05-10T06:57:44.433Z,76.18
2023-05-10T07:00:13.894Z,77.47
2023-05-10T07:02:42.802Z,71.95
2023-05-10T07:05:11.894Z,74.31
2023-05-10T07:07:41.043Z,77.05
2023-05-10T07:10:10.834Z,77.62
2023-05-10T07:12:41.151Z,76.81
2023-05-10T07:15:11.416Z,78.51
2023-05-10T07:17:41.848Z,71.95
2023-05-10T07:20:12.812Z,69.15
2023-05-10T07:22:41.764Z,71.06
2023-05-10T07:25:10.993Z,68.50
2023-05-10T07:27:41.216Z,66.17
2023-05-10T07:30:11.152Z,68.06
2023-05-10T07:32:40.629Z,71.53
2023-05-10T07:35:10.637Z,66.33
2023-05-10T07:37:39.513Z,65.21
2023-05-10T07:40:09.828Z,63.27
2023-05-10T07:42:39.197Z,63.97
2023-05-10T07:45:11.152Z,59.96
2023-05-10T07:47:40.092Z,62.75
2023-05-10T07:50:10.211Z,59.71
2023-05-10T07:52:39.130Z,62.51
2023-05-10T07:55:09.501Z,58.65
2023-05-10T07:57:38.706Z,58.61
2023-05-10T08:00:10.542Z,55.82
2023-05-10T08:02:43.039Z,56.39
2023-05-10T08:05:11.982Z,59.90
2023-05-10T08:07:40.874Z,57.37
2023-05-10T08:10:12.168Z,55.30
2023-05-10T08:12:41.178Z,57.54
2023-05-10T08:15:12.519Z,57.30
2023-05-10T08:17:41.590Z,57.23
2023-05-10T08:20:11.016Z,52.34
2023-05-10T08:22:40.083Z,53.35
2023-05-10T08:25:09.650Z,53.65
2023-05-10T08:27:38.577Z,52.11
2023-05-10T08:30:08.918Z,53.26
2023-05-10T08:32:40.151Z,56.21
2023-05-10T08:35:09.485Z,54.98
2023-05-10T08:37:38.359Z,56.20
2023-05-10T08:40:09.189Z,56.27
2023-05-10T08:42:41.613Z,54.34
2023-05-10T08:45:12.613Z,56.49
2023-05-10T08:47:43.318Z,59.28
2023-05-10T08:50:13.823Z,55.63
2023-05-10T08:52:43.744Z,55.83
2023-05-10T08:55:12.571Z,55.06
2023-05-10T08:57:41.667Z,55.67
2023-05-10T09:00:11.768Z,54.07
2023-05-10T09:02:42.556Z,57.32
2023-05-10T09:05:11.927Z,56.81
2023-05-10T09:07:41.199Z,56.05
2023-05-10T09:10:11.473Z,59.04
2023-05-10T09:12:41.129Z,59.17
2023-05-10T09:15:12.153Z,60.83
2023-05-10T09:17:43.158Z,54.57
2023-05-10T09:20:12.373Z,54.30
2023-05-10T09:22:41.254Z,55.16
2023-05-10T09:25:12.349Z,52.12
2023-05-10T09:27:42.341Z,53.62
2023-05-10T09:30:11.753Z,52.91
2023-05-10T09:32:43.758Z,50.47
2023-05-10T09:35:13.798Z,51.30
2023-05-10T09:37:43.938Z,52.68
2023-05-10T09:40:15.442Z,52.14
2023-05-10T09:42:52.639Z,51.13
2023-05-10T09:45:21.761Z,48.90
2023-05-10T09:47:52.078Z,50.90
2023-05-10T09:50:21.628Z,50.34
2023-05-10T09:52:52.535Z,51.76
2023-05-10T09:55:22.958Z,51.69
2023-05-10T09:58:00.829Z,50.78
2023-05-10T10:00:30.608Z,52.87
2023-05-10T10:03:02.326Z,53.63
2023-05-10T10:05:31.314Z,52.30
2023-05-10T10:08:01.826Z,50.59
2023-05-10T10:10:31.409Z,51.24
2023-05-10T10:13:00.942Z,50.58
2023-05-10T10:15:29.832Z,50.20
2023-05-10T10:18:00.857Z,50.38
2023-05-10T10:20:30.616Z,50.02
2023-05-10T10:22:59.532Z,49.87
2023-05-10T10:25:28.502Z,51.06
2023-05-10T10:28:13.241Z,50.49
2023-05-10T10:30:44.730Z,51.36
2023-05-10T10:33:32.753Z,49.02
2023-05-10T10:36:03.846Z,49.11
2023-05-10T10:38:40.731Z,48.72
2023-05-10T10:41:29.002Z,49.60
2023-05-10T10:44:25.647Z,48.68
2023-05-10T10:47:31.072Z,49.01
2023-05-10T10:50:09.369Z,51.56
2023-05-10T10:52:39.418Z,49.79
2023-05-10T10:55:10.499Z,48.77
2023-05-10T10:57:48.082Z,49.44
2023-05-10T11:00:22.086Z,49.67
2023-05-10T11:02:52.581Z,49.94
2023-05-10T11:05:50.610Z,51.75
2023-05-10T11:08:23.009Z,51.52
2023-05-10T11:11:09.991Z,50.88
2023-05-10T11:13:44.970Z,50.19
2023-05-10T11:16:19.365Z,51.22
2023-05-10T11:18:56.231Z,50.46
2023-05-10T11:21:27.082Z,50.90
2023-05-10T11:23:58.548Z,50.33
2023-05-10T11:26:28.403Z,49.95
2023-05-10T11:28:57.489Z,49.57
2023-05-10T11:31:27.903Z,49.15
2023-05-10T11:33:58.385Z,51.78
2023-05-10T11:36:30.252Z,50.76
2023-05-10T11:38:59.355Z,49.08
2023-05-10T11:41:30.434Z,48.97
2023-05-10T11:44:00.329Z,49.01
2023-05-10T11:46:30.541Z,49.40
2023-05-10T11:49:05.347Z,50.15
2023-05-10T11:51:38.064Z,50.41
2023-05-10T11:54:09.364Z,49.78
2023-05-10T11:56:38.797Z,50.02
2023-05-10T11:59:07.690Z,50.09
2023-05-10T12:01:37.407Z,49.30
2023-05-10T12:04:06.842Z,49.48
2023-05-10T12:06:42.781Z,51.20
2023-05-10T12:09:11.701Z,51.04
2023-05-10T12:11:44.269Z,51.30
2023-05-10T12:14:13.482Z,51.52
2023-05-10T12:16:42.606Z,51.11
2023-05-10T12:19:11.828Z,50.56
2023-05-10T12:21:42.577Z,50.75
2023-05-10T12:24:11.631Z,48.03
2023-05-10T12:26:40.447Z,49.02
2023-05-10T12:29:16.697Z,50.27
2023-05-10T12:31:52.825Z,50.89
2023-05-10T12:34:26.549Z,52.29
2023-05-10T12:36:57.322Z,51.75
2023-05-10T12:39:26.477Z,50.53
2023-05-10T12:41:55.441Z,51.43
2023-05-10T12:44:24.289Z,53.71
2023-05-10T12:46:53.192Z,50.13
2023-05-10T12:49:22.277Z,49.23
2023-05-10T12:51:51.097Z,50.87
2023-05-10T12:54:21.310Z,52.21
2023-05-10T12:56:50.171Z,52.79
2023-05-10T12:59:19.000Z,50.13
2023-05-10T13:01:47.845Z,50.23
2023-05-10T13:04:16.848Z,50.29
2023-05-10T13:06:45.867Z,49.71
2023-05-10T13:09:14.719Z,50.47
2023-05-10T13:11:45.150Z,48.67
2023-05-10T13:14:14.417Z,49.46
2023-05-10T13:16:43.297Z,49.37
2023-05-10T13:19:12.606Z,49.49
2023-05-10T13:21:42.088Z,49.48
2023-05-10T13:24:11.631Z,49.52
2023-05-10T13:26:40.485Z,49.73
2023-05-10T13:29:11.141Z,50.42
2023-05-10T13:31:39.968Z,51.50
2023-05-10T13:34:08.856Z,51.30
2023-05-10T13:36:37.666Z,51.38
2023-05-10T13:39:06.829Z,52.52
2023-05-10T13:41:35.719Z,53.95
2023-05-10T13:44:04.572Z,52.98
2023-05-10T13:46:34.809Z,50.79
2023-05-10T13:49:03.989Z,51.71
2023-05-10T13:51:33.721Z,50.62
2023-05-10T13:54:02.506Z,51.77
2023-05-10T13:56:31.363Z,52.49
2023-05-10T13:59:00.270Z,51.80
2023-05-10T14:01:29.169Z,52.83
2023-05-10T14:03:59.573Z,52.26
2023-05-10T14:06:28.656Z,52.66
2023-05-10T14:08:57.506Z,53.74
2023-05-10T14:11:26.320Z,54.19
2023-05-10T14:13:55.195Z,54.79
2023-05-10T14:16:24.129Z,55.81
2023-05-10T14:18:53.050Z,55.20
2023-05-10T14:21:23.294Z,55.10
2023-05-10T14:23:52.103Z,55.77
2023-05-10T14:26:21.783Z,55.74
2023-05-10T14:28:50.852Z,55.56
2023-05-10T14:31:21.414Z,54.91
2023-05-10T14:33:50.373Z,55.80
2023-05-10T14:36:19.970Z,57.39
2023-05-10T14:38:50.243Z,58.75
2023-05-10T14:41:19.857Z,57.15
2023-05-10T14:43:48.713Z,57.36
2023-05-10T14:46:18.104Z,58.67
2023-05-10T14:48:47.053Z,59.22
2023-05-10T14:51:16.117Z,57.93
2023-05-10T14:53:44.972Z,58.35
2023-05-10T14:56:15.160Z,58.98
2023-05-10T14:58:44.009Z,59.16
2023-05-10T15:01:13.489Z,61.82
2023-05-10T15:03:42.828Z,60.80
2023-05-10T15:06:12.298Z,61.98
2023-05-10T15:08:41.126Z,63.06
2023-05-10T15:11:10.039Z,63.84
2023-05-10T15:13:40.263Z,63.95
2023-05-10T15:16:09.478Z,63.82
2023-05-10T15:18:38.415Z,65.22
2023-05-10T15:21:07.374Z,65.53
2023-05-10T15:23:36.186Z,66.11
2023-05-10T15:26:05.018Z,66.42
2023-05-10T15:28:34.560Z,68.43
2023-05-10T15:31:04.960Z,68.26
2023-05-10T15:33:33.866Z,67.73
2023-05-10T15:36:02.679Z,67.64
2023-05-10T15:38:32.558Z,68.53
2023-05-10T15:41:03.225Z,71.07
2023-05-10T15:43:32.124Z,71.92
2023-05-10T15:46:00.982Z,72.58
2023-05-10T15:48:32.414Z,71.75
2023-05-10T15:51:01.259Z,72.74
2023-05-10T15:53:30.217Z,75.96
2023-05-10T15:55:59.490Z,75.81
2023-05-10T15:58:28.331Z,76.79
2023-05-10T16:00:57.782Z,75.92
2023-05-10T16:03:27.929Z,76.08
2023-05-10T16:05:58.308Z,76.93
2023-05-10T16:08:27.195Z,78.40
2023-05-10T16:10:56.108Z,77.68
2023-05-10T16:13:24.876Z,77.80
2023-05-10T16:15:54.112Z,78.91
2023-05-10T16:18:23.128Z,78.47
2023-05-10T16:20:52.178Z,80.02
2023-05-10T16:23:22.789Z,82.35
2023-05-10T16:25:51.568Z,81.60
2023-05-10T16:28:21.212Z,82.14
2023-05-10T16:30:50.196Z,82.48
2023-05-10T16:33:19.003Z,82.50
2023-05-10T16:35:47.869Z,84.04
2023-05-10T16:38:16.660Z,84.06
2023-05-10T16:40:46.877Z,85.18
2023-05-10T16:43:16.148Z,85.36
2023-05-10T16:45:44.960Z,87.57
2023-05-10T16:48:13.846Z,89.15
2023-05-10T16:50:44.741Z,89.95
2023-05-10T16:53:13.650Z,90.00
2023-05-10T16:55:42.528Z,90.43
2023-05-10T16:58:12.843Z,91.45
2023-05-10T17:00:42.098Z,90.98
2023-05-10T17:03:11.251Z,89.17
2023-05-10T17:05:40.114Z,89.41
2023-05-10T17:08:09.157Z,87.37
2023-05-10T17:10:41.573Z,87.88
2023-05-10T17:13:10.936Z,87.22
2023-05-10T17:15:43.033Z,86.63
2023-05-10T17:18:11.958Z,87.10
2023-05-10T17:20:40.843Z,86.40
2023-05-10T17:23:09.656Z,87.20
2023-05-10T17:25:38.510Z,88.42
2023-05-10T17:28:07.350Z,87.48
2023-05-10T17:30:36.229Z,88.19
2023-05-10T17:33:06.820Z,88.02
2023-05-10T17:35:35.755Z,89.51
2023-05-10T17:38:04.603Z,88.98
2023-05-10T17:40:33.490Z,87.70
2023-05-10T17:43:02.426Z,88.35
2023-05-10T17:45:31.360Z,88.62
2023-05-10T17:48:00.290Z,91.00
2023-05-10T17:50:32.286Z,89.38
2023-05-10T17:53:01.160Z,90.75
2023-05-10T17:55:30.905Z,88.41
2023-05-10T17:58:00.071Z,88.84
2023-05-10T18:00:31.537Z,89.80
2023-05-10T18:03:00.460Z,89.93
2023-05-10T18:05:30.914Z,88.61
2023-05-10T18:07:59.792Z,89.13
2023-05-10T18:10:48.442Z,89.41
2023-05-10T18:13:17.566Z,91.10
2023-05-10T18:15:46.511Z,90.33
2023-05-10T18:18:15.552Z,91.60
2023-05-10T18:20:46.460Z,91.10
2023-05-10T18:23:15.550Z,90.41
2023-05-10T18:25:44.390Z,91.23
2023-05-10T18:28:13.242Z,89.69
2023-05-10T18:30:42.212Z,90.83
2023-05-10T18:33:11.960Z,89.04
2023-05-10T18:35:41.259Z,90.12
2023-05-10T18:38:12.597Z,89.71
2023-05-10T18:40:42.340Z,87.59
2023-05-10T18:43:11.498Z,87.99
2023-05-10T18:45:40.296Z,89.86
2023-05-10T18:48:09.113Z,90.08
2023-05-10T18:50:37.992Z,88.05
2023-05-10T18:53:06.935Z,89.84
2023-05-10T18:55:37.177Z,87.42
2023-05-10T18:58:06.046Z,87.43
2023-05-10T19:00:35.497Z,88.64
2023-05-10T19:03:04.430Z,91.23
2023-05-10T19:05:33.269Z,88.32
2023-05-10T19:08:02.235Z,88.51
2023-05-10T19:10:31.175Z,88.09
2023-05-10T19:13:01.436Z,88.64
2023-05-10T19:15:30.901Z,87.35
2023-05-10T19:17:59.872Z,87.56
2023-05-10T19:20:30.252Z,88.89
2023-05-10T19:23:09.801Z,89.36
2023-05-10T19:25:39.484Z,88.23
2023-05-10T19:28:10.673Z,91.17
2023-05-10T19:30:39.579Z,91.27
2023-05-10T19:33:10.213Z,89.56
2023-05-10T19:35:39.883Z,90.23
2023-05-10T19:38:08.842Z,92.04
2023-05-10T19:40:37.729Z,92.53
2023-05-10T19:43:07.137Z,93.87
2023-05-10T19:45:37.459Z,94.00
2023-05-10T19:48:06.834Z,94.65
2023-05-10T19:50:35.763Z,94.04
2023-05-10T19:53:04.657Z,94.54
2023-05-10T19:55:33.872Z,93.18
2023-05-10T19:58:03.030Z,93.51
2023-05-10T20:00:32.326Z,93.24
2023-05-10T20:03:03.365Z,93.67
2023-05-10T20:05:32.529Z,93.79
2023-05-10T20:08:01.338Z,95.46
2023-05-10T20:10:30.297Z,92.97
2023-05-10T20:13:00.371Z,92.88
2023-05-10T20:15:30.476Z,93.28
2023-05-10T20:17:59.366Z,93.20
2023-05-10T20:20:29.673Z,94.50
2023-05-10T20:22:58.451Z,92.50
2023-05-10T20:25:27.407Z,93.54
2023-05-10T20:27:56.174Z,90.99
2023-05-10T20:30:25.127Z,90.40
2023-05-10T20:32:54.004Z,90.48
2023-05-10T20:35:23.018Z,92.71
2023-05-10T20:37:53.168Z,93.07
2023-05-10T20:40:22.383Z,93.69
2023-05-10T20:42:53.925Z,93.65
2023-05-10T20:45:22.950Z,93.46
2023-05-10T20:47:51.798Z,92.55
2023-05-10T20:50:20.827Z,92.59
2023-05-10T20:52:51.027Z,94.81
2023-05-10T20:55:21.339Z,96.58
2023-05-10T20:57:50.177Z,96.22
2023-05-10T21:00:19.833Z,95.27
2023-05-10T21:02:48.934Z,96.38
2023-05-10T21:05:18.441Z,97.08
2023-05-10T21:07:47.311Z,96.91
2023-05-10T21:10:16.475Z,97.53
2023-05-10T21:12:47.133Z,94.81
2023-05-10T21:15:15.968Z,97.09
2023-05-10T21:17:46.261Z,99.49
2023-05-10T21:20:15.561Z,98.24
2023-05-10T21:22:44.504Z,97.48
2023-05-10T21:25:13.367Z,98.01
2023-05-10T21:27:42.237Z,98.30
2023-05-10T21:30:13.194Z,98.07
2023-05-10T21:32:42.583Z,99.42
2023-05-10T21:35:11.681Z,98.23
2023-05-10T21:37:40.552Z,98.01
2023-05-10T21:40:10.500Z,98.53
2023-05-10T21:42:39.300Z,98.64
2023-05-10T21:45:09.167Z,97.58
2023-05-10T21:47:39.391Z,99.15
2023-05-10T21:50:10.423Z,99.90
2023-05-10T21:52:39.774Z,100.00
2023-05-10T21:55:09.931Z,100.00
2023-05-10T21:57:38.805Z,100.00
2023-05-10T22:00:09.187Z,100.00
2023-05-10T22:02:39.556Z,100.00
2023-05-10T22:05:08.891Z,100.00
2023-05-10T22:07:37.877Z,100.00
2023-05-10T22:10:07.818Z,100.00
2023-05-10T22:12:36.805Z,100.00
2023-05-10T22:15:10.166Z,100.00
2023-05-10T22:17:41.525Z,100.00
2023-05-10T22:20:10.919Z,100.00
2023-05-10T22:22:39.840Z,100.00
2023-05-10T22:25:09.883Z,100.00
2023-05-10T22:27:38.837Z,100.00
2023-05-10T22:30:08.948Z,100.00
2023-05-10T22:32:38.126Z,100.00
2023-05-10T22:35:09.759Z,100.00
2023-05-10T22:37:38.542Z,100.00
2023-05-10T22:40:09.122Z,100.00
2023-05-10T22:42:38.048Z,100.00
2023-05-10T22:45:08.169Z,100.00
2023-05-10T22:47:37.117Z,100.00
2023-05-10T22:50:08.757Z,100.00
2023-05-10T22:52:39.490Z,100.00
2023-05-10T22:55:09.144Z,100.00
2023-05-10T22:57:38.655Z,100.00
2023-05-10T23:00:09.366Z,100.00
2023-05-10T23:02:38.321Z,100.00
2023-05-10T23:05:10.053Z,100.00
2023-05-10T23:07:38.974Z,100.00
2023-05-10T23:10:08.494Z,100.00
2023-05-10T23:12:37.329Z,100.00
2023-05-10T23:15:07.260Z,100.00
2023-05-10T23:17:36.192Z,100.00
2023-05-10T23:20:05.388Z,100.00
2023-05-10T23:22:36.024Z,100.00
2023-05-10T23:25:05.033Z,100.00
2023-05-10T23:27:33.901Z,100.00
2023-05-10T23:30:03.183Z,100.00
2023-05-10T23:32:32.961Z,100.00
2023-05-10T23:35:02.023Z,100.00
2023-05-10T23:37:30.933Z,100.00
2023-05-10T23:40:02.065Z,100.00
2023-05-10T23:42:31.188Z,100.00
2023-05-10T23:45:00.187Z,100.00
2023-05-10T23:47:29.655Z,100.00
2023-05-10T23:49:58.595Z,100.00
2023-05-10T23:52:27.660Z,100.00
2023-05-10T23:54:56.452Z,100.00
2023-05-10T23:57:26.636Z,100.00
2023-05-10T23:59:55.597Z,100.00
